sensor_id;sensor_type;location;lat;lon;timestamp;temperature;humidity
44559;DHT22;30270;40.238;18.256;2022-07-03T00:01:42;29.70;99.90
44559;DHT22;30270;40.238;18.256;2022-07-03T00:04:10;29.70;99.90
44559;DHT22;30270;40.238;18.256;2022-07-03T00:06:37;29.70;99.90
44559;DHT22;30270;40.238;18.256;2022-07-03T00:09:05;29.60;99.90
44559;DHT22;30270;40.238;18.256;2022-07-03T00:11:32;29.70;99.90
44559;DHT22;30270;40.238;18.256;2022-07-03T00:14:00;29.70;99.90
44559;DHT22;30270;40.238;18.256;2022-07-03T00:16:27;29.60;99.90
44559;DHT22;30270;40.238;18.256;2022-07-03T00:18:55;29.60;99.90
44559;DHT22;30270;40.238;18.256;2022-07-03T00:21:25;29.60;99.90
44559;DHT22;30270;40.238;18.256;2022-07-03T00:24:00;29.60;99.90
44559;DHT22;30270;40.238;18.256;2022-07-03T00:26:29;29.60;99.90
44559;DHT22;30270;40.238;18.256;2022-07-03T00:28:57;29.60;99.90
44559;DHT22;30270;40.238;18.256;2022-07-03T00:31:29;29.50;99.90
44559;DHT22;30270;40.238;18.256;2022-07-03T00:34:00;29.50;99.90
44559;DHT22;30270;40.238;18.256;2022-07-03T00:36:35;29.50;99.90
44559;DHT22;30270;40.238;18.256;2022-07-03T00:39:03;29.50;99.90
44559;DHT22;30270;40.238;18.256;2022-07-03T00:41:32;29.50;99.90
44559;DHT22;30270;40.238;18.256;2022-07-03T00:44:02;29.50;99.90
44559;DHT22;30270;40.238;18.256;2022-07-03T00:46:29;29.50;99.90
44559;DHT22;30270;40.238;18.256;2022-07-03T00:48:57;29.50;99.90
44559;DHT22;30270;40.238;18.256;2022-07-03T00:51:26;29.40;99.90
44559;DHT22;30270;40.238;18.256;2022-07-03T00:53:55;29.50;99.90
44559;DHT22;30270;40.238;18.256;2022-07-03T00:56:24;29.40;99.90
44559;DHT22;30270;40.238;18.256;2022-07-03T00:58:53;29.40;99.90
44559;DHT22;30270;40.238;18.256;2022-07-03T01:01:22;29.50;99.90
44559;DHT22;30270;40.238;18.256;2022-07-03T01:03:53;29.50;99.90
44559;DHT22;30270;40.238;18.256;2022-07-03T01:06:25;29.40;99.90
44559;DHT22;30270;40.238;18.256;2022-07-03T01:08:54;29.40;99.90
44559;DHT22;30270;40.238;18.256;2022-07-03T01:11:42;29.40;99.90
44559;DHT22;30270;40.238;18.256;2022-07-03T01:19:40;29.40;99.90
44559;DHT22;30270;40.238;18.256;2022-07-03T01:25:14;29.40;99.90
44559;DHT22;30270;40.238;18.256;2022-07-03T01:30:28;29.40;99.90
44559;DHT22;30270;40.238;18.256;2022-07-03T01:32:59;29.30;99.90
44559;DHT22;30270;40.238;18.256;2022-07-03T01:35:32;29.30;99.90
44559;DHT22;30270;40.238;18.256;2022-07-03T01:38:04;29.40;99.90
44559;DHT22;30270;40.238;18.256;2022-07-03T01:40:32;29.30;99.90
44559;DHT22;30270;40.238;18.256;2022-07-03T01:43:01;29.30;99.90
44559;DHT22;30270;40.238;18.256;2022-07-03T01:45:31;29.30;99.90
44559;DHT22;30270;40.238;18.256;2022-07-03T01:47:58;29.30;99.90
44559;DHT22;30270;40.238;18.256;2022-07-03T01:50:26;29.20;99.90
44559;DHT22;30270;40.238;18.256;2022-07-03T01:52:55;29.20;99.90
44559;DHT22;30270;40.238;18.256;2022-07-03T01:55:23;29.20;99.90
44559;DHT22;30270;40.238;18.256;2022-07-03T01:57:51;29.20;99.90
44559;DHT22;30270;40.238;18.256;2022-07-03T02:00:19;29.20;99.90
44559;DHT22;30270;40.238;18.256;2022-07-03T02:10:38;29.20;99.90
44559;DHT22;30270;40.238;18.256;2022-07-03T02:13:14;29.20;99.90
44559;DHT22;30270;40.238;18.256;2022-07-03T02:15:43;29.20;99.90
44559;DHT22;30270;40.238;18.256;2022-07-03T02:20:42;29.20;99.90
44559;DHT22;30270;40.238;18.256;2022-07-03T02:23:12;29.20;99.90
44559;DHT22;30270;40.238;18.256;2022-07-03T02:25:41;29.20;99.90
44559;DHT22;30270;40.238;18.256;2022-07-03T02:30:55;29.20;99.90
44559;DHT22;30270;40.238;18.256;2022-07-03T02:33:24;29.20;99.90
44559;DHT22;30270;40.238;18.256;2022-07-03T02:35:53;29.20;99.90
44559;DHT22;30270;40.238;18.256;2022-07-03T02:38:21;29.20;99.90
44559;DHT22;30270;40.238;18.256;2022-07-03T02:46:15;29.10;99.90
44559;DHT22;30270;40.238;18.256;2022-07-03T02:49:09;29.10;99.90
44559;DHT22;30270;40.238;18.256;2022-07-03T02:51:40;29.10;99.90
44559;DHT22;30270;40.238;18.256;2022-07-03T02:54:14;29.10;99.90
44559;DHT22;30270;40.238;18.256;2022-07-03T03:01:54;29.00;99.90
44559;DHT22;30270;40.238;18.256;2022-07-03T03:04:34;29.00;99.90
44559;DHT22;30270;40.238;18.256;2022-07-03T03:07:03;29.00;99.90
44559;DHT22;30270;40.238;18.256;2022-07-03T03:09:35;28.90;99.90
44559;DHT22;30270;40.238;18.256;2022-07-03T03:12:07;28.90;99.90
44559;DHT22;30270;40.238;18.256;2022-07-03T03:14:39;28.90;99.90
44559;DHT22;30270;40.238;18.256;2022-07-03T03:17:46;28.90;99.90
44559;DHT22;30270;40.238;18.256;2022-07-03T03:20:04;28.90;99.90
44559;DHT22;30270;40.238;18.256;2022-07-03T03:25:01;28.90;99.90
44559;DHT22;30270;40.238;18.256;2022-07-03T03:27:28;28.90;99.90
44559;DHT22;30270;40.238;18.256;2022-07-03T03:29:56;28.90;99.90
44559;DHT22;30270;40.238;18.256;2022-07-03T03:32:23;28.90;99.90
44559;DHT22;30270;40.238;18.256;2022-07-03T03:34:51;28.90;99.90
44559;DHT22;30270;40.238;18.256;2022-07-03T03:37:19;28.90;99.90
44559;DHT22;30270;40.238;18.256;2022-07-03T03:39:46;28.90;99.90
44559;DHT22;30270;40.238;18.256;2022-07-03T03:42:14;28.90;99.90
44559;DHT22;30270;40.238;18.256;2022-07-03T03:44:41;28.90;99.90
44559;DHT22;30270;40.238;18.256;2022-07-03T03:47:09;28.90;99.90
44559;DHT22;30270;40.238;18.256;2022-07-03T03:49:36;28.90;99.90
44559;DHT22;30270;40.238;18.256;2022-07-03T03:52:04;28.90;99.90
44559;DHT22;30270;40.238;18.256;2022-07-03T03:54:31;28.90;99.90
44559;DHT22;30270;40.238;18.256;2022-07-03T03:57:21;28.90;99.90
44559;DHT22;30270;40.238;18.256;2022-07-03T03:59:46;28.90;99.90
44559;DHT22;30270;40.238;18.256;2022-07-03T04:02:14;28.80;99.90
44559;DHT22;30270;40.238;18.256;2022-07-03T04:04:42;28.90;99.90
44559;DHT22;30270;40.238;18.256;2022-07-03T04:07:09;28.90;99.90
44559;DHT22;30270;40.238;18.256;2022-07-03T04:09:37;28.90;99.90
44559;DHT22;30270;40.238;18.256;2022-07-03T04:12:04;29.00;99.90
44559;DHT22;30270;40.238;18.256;2022-07-03T04:14:32;29.00;99.90
44559;DHT22;30270;40.238;18.256;2022-07-03T04:16:59;29.10;99.90
44559;DHT22;30270;40.238;18.256;2022-07-03T04:19:27;29.10;99.90
44559;DHT22;30270;40.238;18.256;2022-07-03T04:21:54;29.20;99.90
44559;DHT22;30270;40.238;18.256;2022-07-03T04:24:22;29.20;99.90
44559;DHT22;30270;40.238;18.256;2022-07-03T04:26:49;29.20;99.90
44559;DHT22;30270;40.238;18.256;2022-07-03T04:29:16;29.30;99.90
44559;DHT22;30270;40.238;18.256;2022-07-03T04:31:44;29.30;99.90
44559;DHT22;30270;40.238;18.256;2022-07-03T04:34:11;29.40;99.90
44559;DHT22;30270;40.238;18.256;2022-07-03T04:36:39;29.40;99.90
44559;DHT22;30270;40.238;18.256;2022-07-03T04:39:07;29.50;99.90
44559;DHT22;30270;40.238;18.256;2022-07-03T04:41:35;29.60;99.90
44559;DHT22;30270;40.238;18.256;2022-07-03T04:44:02;29.60;99.90
44559;DHT22;30270;40.238;18.256;2022-07-03T04:46:29;29.70;99.90
44559;DHT22;30270;40.238;18.256;2022-07-03T04:48:57;29.90;99.90
44559;DHT22;30270;40.238;18.256;2022-07-03T04:51:24;30.00;99.90
44559;DHT22;30270;40.238;18.256;2022-07-03T04:53:51;30.00;99.90
44559;DHT22;30270;40.238;18.256;2022-07-03T04:56:19;30.10;99.90
44559;DHT22;30270;40.238;18.256;2022-07-03T04:58:46;30.20;99.90
44559;DHT22;30270;40.238;18.256;2022-07-03T05:01:14;30.30;99.90
44559;DHT22;30270;40.238;18.256;2022-07-03T05:03:41;30.30;99.90
44559;DHT22;30270;40.238;18.256;2022-07-03T05:06:09;30.40;99.90
44559;DHT22;30270;40.238;18.256;2022-07-03T05:08:36;30.40;99.60
44559;DHT22;30270;40.238;18.256;2022-07-03T05:11:03;30.50;99.50
44559;DHT22;30270;40.238;18.256;2022-07-03T05:13:31;30.60;99.30
44559;DHT22;30270;40.238;18.256;2022-07-03T05:15:58;30.80;99.00
44559;DHT22;30270;40.238;18.256;2022-07-03T05:18:25;30.80;98.70
44559;DHT22;30270;40.238;18.256;2022-07-03T05:20:53;30.80;98.50
44559;DHT22;30270;40.238;18.256;2022-07-03T05:23:20;30.90;98.50
44559;DHT22;30270;40.238;18.256;2022-07-03T05:25:48;31.10;98.40
44559;DHT22;30270;40.238;18.256;2022-07-03T05:28:15;31.20;98.20
44559;DHT22;30270;40.238;18.256;2022-07-03T05:30:42;31.20;98.00
44559;DHT22;30270;40.238;18.256;2022-07-03T05:33:13;31.30;97.70
44559;DHT22;30270;40.238;18.256;2022-07-03T05:35:40;31.30;97.70
44559;DHT22;30270;40.238;18.256;2022-07-03T05:38:07;31.50;97.50
44559;DHT22;30270;40.238;18.256;2022-07-03T05:40:35;31.50;97.10
44559;DHT22;30270;40.238;18.256;2022-07-03T05:43:02;31.50;97.00
44559;DHT22;30270;40.238;18.256;2022-07-03T05:45:29;31.50;96.90
44559;DHT22;30270;40.238;18.256;2022-07-03T05:47:57;31.60;96.80
44559;DHT22;30270;40.238;18.256;2022-07-03T05:50:24;31.70;96.60
44559;DHT22;30270;40.238;18.256;2022-07-03T05:52:52;31.80;96.30
44559;DHT22;30270;40.238;18.256;2022-07-03T05:55:20;31.90;96.20
44559;DHT22;30270;40.238;18.256;2022-07-03T05:57:47;32.00;96.00
44559;DHT22;30270;40.238;18.256;2022-07-03T06:00:14;32.10;96.00
44559;DHT22;30270;40.238;18.256;2022-07-03T06:02:42;32.20;95.90
44559;DHT22;30270;40.238;18.256;2022-07-03T06:05:09;32.20;95.80
44559;DHT22;30270;40.238;18.256;2022-07-03T06:07:37;32.30;95.90
44559;DHT22;30270;40.238;18.256;2022-07-03T06:10:04;32.40;95.80
44559;DHT22;30270;40.238;18.256;2022-07-03T06:12:32;32.50;95.70
44559;DHT22;30270;40.238;18.256;2022-07-03T06:14:59;32.60;95.70
44559;DHT22;30270;40.238;18.256;2022-07-03T06:17:28;32.60;95.50
44559;DHT22;30270;40.238;18.256;2022-07-03T06:19:55;32.70;95.50
44559;DHT22;30270;40.238;18.256;2022-07-03T06:22:22;32.80;95.50
44559;DHT22;30270;40.238;18.256;2022-07-03T06:24:50;32.90;95.50
44559;DHT22;30270;40.238;18.256;2022-07-03T06:27:17;33.10;95.40
44559;DHT22;30270;40.238;18.256;2022-07-03T06:29:44;33.30;95.20
44559;DHT22;30270;40.238;18.256;2022-07-03T06:32:12;33.40;95.00
44559;DHT22;30270;40.238;18.256;2022-07-03T06:34:39;33.50;94.90
44559;DHT22;30270;40.238;18.256;2022-07-03T06:37:07;33.40;94.60
44559;DHT22;30270;40.238;18.256;2022-07-03T06:39:34;33.30;94.80
44559;DHT22;30270;40.238;18.256;2022-07-03T06:42:01;33.40;94.70
44559;DHT22;30270;40.238;18.256;2022-07-03T06:44:29;33.50;94.80
44559;DHT22;30270;40.238;18.256;2022-07-03T06:46:56;33.60;94.80
44559;DHT22;30270;40.238;18.256;2022-07-03T06:49:24;33.70;94.90
44559;DHT22;30270;40.238;18.256;2022-07-03T06:51:51;33.90;94.50
44559;DHT22;30270;40.238;18.256;2022-07-03T06:54:19;33.80;94.50
44559;DHT22;30270;40.238;18.256;2022-07-03T06:56:46;33.80;94.10
44559;DHT22;30270;40.238;18.256;2022-07-03T06:59:13;33.90;93.90
44559;DHT22;30270;40.238;18.256;2022-07-03T07:01:41;34.00;94.00
44559;DHT22;30270;40.238;18.256;2022-07-03T07:04:09;34.00;93.90
44559;DHT22;30270;40.238;18.256;2022-07-03T07:06:36;34.10;93.80
44559;DHT22;30270;40.238;18.256;2022-07-03T07:09:04;34.20;93.80
44559;DHT22;30270;40.238;18.256;2022-07-03T07:11:31;34.30;93.40
44559;DHT22;30270;40.238;18.256;2022-07-03T07:13:59;34.40;93.10
44559;DHT22;30270;40.238;18.256;2022-07-03T07:16:26;34.40;93.20
44559;DHT22;30270;40.238;18.256;2022-07-03T07:18:53;34.50;93.30
44559;DHT22;30270;40.238;18.256;2022-07-03T07:21:21;34.60;92.70
44559;DHT22;30270;40.238;18.256;2022-07-03T07:23:48;34.50;92.40
44559;DHT22;30270;40.238;18.256;2022-07-03T07:26:16;34.50;92.70
44559;DHT22;30270;40.238;18.256;2022-07-03T07:28:46;34.50;92.20
44559;DHT22;30270;40.238;18.256;2022-07-03T07:31:13;34.50;91.40
44559;DHT22;30270;40.238;18.256;2022-07-03T07:33:41;34.50;91.00
44559;DHT22;30270;40.238;18.256;2022-07-03T07:36:08;34.60;90.80
44559;DHT22;30270;40.238;18.256;2022-07-03T07:38:35;34.60;91.10
44559;DHT22;30270;40.238;18.256;2022-07-03T07:41:03;34.60;91.50
44559;DHT22;30270;40.238;18.256;2022-07-03T07:43:30;34.50;91.40
44559;DHT22;30270;40.238;18.256;2022-07-03T07:45:58;34.70;91.00
44559;DHT22;30270;40.238;18.256;2022-07-03T07:48:25;34.80;91.00
44559;DHT22;30270;40.238;18.256;2022-07-03T07:50:53;34.80;90.90
44559;DHT22;30270;40.238;18.256;2022-07-03T07:53:20;34.70;91.10
44559;DHT22;30270;40.238;18.256;2022-07-03T07:55:48;34.70;91.50
44559;DHT22;30270;40.238;18.256;2022-07-03T07:58:15;34.60;91.50
44559;DHT22;30270;40.238;18.256;2022-07-03T08:00:42;34.60;91.20
44559;DHT22;30270;40.238;18.256;2022-07-03T08:03:29;34.70;91.20
44559;DHT22;30270;40.238;18.256;2022-07-03T08:06:15;34.60;90.60
44559;DHT22;30270;40.238;18.256;2022-07-03T08:08:42;34.70;90.80
44559;DHT22;30270;40.238;18.256;2022-07-03T08:11:10;34.90;90.60
44559;DHT22;30270;40.238;18.256;2022-07-03T08:13:37;35.10;90.40
44559;DHT22;30270;40.238;18.256;2022-07-03T08:16:05;35.20;90.60
44559;DHT22;30270;40.238;18.256;2022-07-03T08:18:32;35.10;90.70
44559;DHT22;30270;40.238;18.256;2022-07-03T08:21:00;34.80;91.10
44559;DHT22;30270;40.238;18.256;2022-07-03T08:23:27;34.60;90.90
44559;DHT22;30270;40.238;18.256;2022-07-03T08:25:54;34.60;90.50
44559;DHT22;30270;40.238;18.256;2022-07-03T08:28:22;34.60;90.70
44559;DHT22;30270;40.238;18.256;2022-07-03T08:30:49;34.80;90.80
44559;DHT22;30270;40.238;18.256;2022-07-03T08:33:17;34.60;90.80
44559;DHT22;30270;40.238;18.256;2022-07-03T08:35:44;34.70;90.80
44559;DHT22;30270;40.238;18.256;2022-07-03T08:38:11;34.60;90.70
44559;DHT22;30270;40.238;18.256;2022-07-03T08:40:39;34.60;90.90
44559;DHT22;30270;40.238;18.256;2022-07-03T08:43:07;34.50;91.10
44559;DHT22;30270;40.238;18.256;2022-07-03T08:45:34;34.50;91.00
44559;DHT22;30270;40.238;18.256;2022-07-03T08:48:04;34.60;91.20
44559;DHT22;30270;40.238;18.256;2022-07-03T08:50:32;34.70;91.20
44559;DHT22;30270;40.238;18.256;2022-07-03T08:53:00;34.90;91.20
44559;DHT22;30270;40.238;18.256;2022-07-03T08:55:27;34.90;91.30
44559;DHT22;30270;40.238;18.256;2022-07-03T08:57:57;35.00;91.20
44559;DHT22;30270;40.238;18.256;2022-07-03T09:00:26;35.20;90.90
44559;DHT22;30270;40.238;18.256;2022-07-03T09:02:53;35.20;90.70
44559;DHT22;30270;40.238;18.256;2022-07-03T09:05:22;35.00;90.50
44559;DHT22;30270;40.238;18.256;2022-07-03T09:07:49;34.90;90.60
44559;DHT22;30270;40.238;18.256;2022-07-03T09:10:17;35.00;90.60
44559;DHT22;30270;40.238;18.256;2022-07-03T09:12:46;35.10;90.70
44559;DHT22;30270;40.238;18.256;2022-07-03T09:15:14;35.10;91.00
44559;DHT22;30270;40.238;18.256;2022-07-03T09:20:32;35.20;91.20
44559;DHT22;30270;40.238;18.256;2022-07-03T09:23:13;35.30;90.50
44559;DHT22;30270;40.238;18.256;2022-07-03T09:25:51;35.30;90.60
44559;DHT22;30270;40.238;18.256;2022-07-03T09:28:22;35.30;90.50
44559;DHT22;30270;40.238;18.256;2022-07-03T09:30:57;35.30;90.40
44559;DHT22;30270;40.238;18.256;2022-07-03T09:33:24;35.50;90.40
44559;DHT22;30270;40.238;18.256;2022-07-03T09:35:53;35.60;90.10
44559;DHT22;30270;40.238;18.256;2022-07-03T09:38:21;35.20;90.30
44559;DHT22;30270;40.238;18.256;2022-07-03T09:43:24;35.40;90.10
44559;DHT22;30270;40.238;18.256;2022-07-03T09:45:55;35.40;90.40
44559;DHT22;30270;40.238;18.256;2022-07-03T09:48:24;35.50;90.30
44559;DHT22;30270;40.238;18.256;2022-07-03T09:51:10;35.50;90.40
44559;DHT22;30270;40.238;18.256;2022-07-03T09:56:11;35.40;89.80
44559;DHT22;30270;40.238;18.256;2022-07-03T09:58:39;35.40;89.90
44559;DHT22;30270;40.238;18.256;2022-07-03T10:01:16;35.50;90.10
44559;DHT22;30270;40.238;18.256;2022-07-03T10:03:44;35.30;90.30
44559;DHT22;30270;40.238;18.256;2022-07-03T10:06:14;35.30;90.10
44559;DHT22;30270;40.238;18.256;2022-07-03T10:08:42;35.20;90.00
44559;DHT22;30270;40.238;18.256;2022-07-03T10:11:09;35.30;89.90
44559;DHT22;30270;40.238;18.256;2022-07-03T10:13:40;35.40;88.60
44559;DHT22;30270;40.238;18.256;2022-07-03T10:16:07;35.30;88.80
44559;DHT22;30270;40.238;18.256;2022-07-03T10:18:36;35.20;88.90
44559;DHT22;30270;40.238;18.256;2022-07-03T10:21:06;35.30;89.20
44559;DHT22;30270;40.238;18.256;2022-07-03T10:23:34;35.20;89.20
44559;DHT22;30270;40.238;18.256;2022-07-03T10:26:02;35.30;89.90
44559;DHT22;30270;40.238;18.256;2022-07-03T10:28:29;35.40;90.20
44559;DHT22;30270;40.238;18.256;2022-07-03T10:30:57;35.60;90.30
44559;DHT22;30270;40.238;18.256;2022-07-03T10:33:26;35.70;90.70
44559;DHT22;30270;40.238;18.256;2022-07-03T10:35:55;35.70;90.80
44559;DHT22;30270;40.238;18.256;2022-07-03T10:38:39;35.70;90.20
44559;DHT22;30270;40.238;18.256;2022-07-03T10:41:26;35.70;89.00
44559;DHT22;30270;40.238;18.256;2022-07-03T10:44:14;35.70;89.70
44559;DHT22;30270;40.238;18.256;2022-07-03T10:47:01;35.70;90.50
44559;DHT22;30270;40.238;18.256;2022-07-03T10:49:32;35.60;90.40
44559;DHT22;30270;40.238;18.256;2022-07-03T10:52:00;35.60;90.00
44559;DHT22;30270;40.238;18.256;2022-07-03T11:07:26;35.20;88.30
44559;DHT22;30270;40.238;18.256;2022-07-03T11:28:07;34.90;89.90
44559;DHT22;30270;40.238;18.256;2022-07-03T11:31:00;35.00;90.00
44559;DHT22;30270;40.238;18.256;2022-07-03T11:36:11;34.80;90.10
44559;DHT22;30270;40.238;18.256;2022-07-03T11:38:38;34.80;89.70
44559;DHT22;30270;40.238;18.256;2022-07-03T11:41:07;34.90;90.00
44559;DHT22;30270;40.238;18.256;2022-07-03T11:43:35;35.00;90.10
44559;DHT22;30270;40.238;18.256;2022-07-03T11:46:03;35.00;90.10
44559;DHT22;30270;40.238;18.256;2022-07-03T11:48:31;34.90;88.20
44559;DHT22;30270;40.238;18.256;2022-07-03T11:50:59;34.90;88.20
44559;DHT22;30270;40.238;18.256;2022-07-03T11:53:32;34.90;87.20
44559;DHT22;30270;40.238;18.256;2022-07-03T12:03:53;34.70;88.40
44559;DHT22;30270;40.238;18.256;2022-07-03T12:06:20;34.70;86.90
44559;DHT22;30270;40.238;18.256;2022-07-03T12:08:48;34.80;86.60
44559;DHT22;30270;40.238;18.256;2022-07-03T12:11:16;34.70;88.40
44559;DHT22;30270;40.238;18.256;2022-07-03T12:13:44;34.60;91.10
44559;DHT22;30270;40.238;18.256;2022-07-03T12:16:13;34.50;90.10
44559;DHT22;30270;40.238;18.256;2022-07-03T12:18:44;34.50;90.00
44559;DHT22;30270;40.238;18.256;2022-07-03T12:21:12;34.50;91.40
44559;DHT22;30270;40.238;18.256;2022-07-03T12:23:40;34.40;90.70
44559;DHT22;30270;40.238;18.256;2022-07-03T12:26:08;34.40;90.20
44559;DHT22;30270;40.238;18.256;2022-07-03T12:28:36;34.50;90.20
44559;DHT22;30270;40.238;18.256;2022-07-03T12:31:04;34.50;89.50
44559;DHT22;30270;40.238;18.256;2022-07-03T12:33:32;34.50;89.90
44559;DHT22;30270;40.238;18.256;2022-07-03T12:36:03;34.40;88.50
44559;DHT22;30270;40.238;18.256;2022-07-03T12:38:30;34.50;89.00
44559;DHT22;30270;40.238;18.256;2022-07-03T12:41:02;34.50;89.00
44559;DHT22;30270;40.238;18.256;2022-07-03T12:43:39;34.50;88.00
44559;DHT22;30270;40.238;18.256;2022-07-03T12:48:54;34.60;88.10
44559;DHT22;30270;40.238;18.256;2022-07-03T12:56:36;34.40;85.70
44559;DHT22;30270;40.238;18.256;2022-07-03T12:59:04;34.20;85.90
44559;DHT22;30270;40.238;18.256;2022-07-03T13:01:44;34.30;85.90
44559;DHT22;30270;40.238;18.256;2022-07-03T13:04:12;34.30;85.10
44559;DHT22;30270;40.238;18.256;2022-07-03T13:06:42;34.30;85.10
44559;DHT22;30270;40.238;18.256;2022-07-03T13:09:12;34.40;84.80
44559;DHT22;30270;40.238;18.256;2022-07-03T13:11:41;34.40;85.50
44559;DHT22;30270;40.238;18.256;2022-07-03T13:16:38;34.60;85.10
44559;DHT22;30270;40.238;18.256;2022-07-03T13:19:06;34.60;85.40
44559;DHT22;30270;40.238;18.256;2022-07-03T13:21:34;34.40;84.50
44559;DHT22;30270;40.238;18.256;2022-07-03T13:24:02;34.40;85.50
44559;DHT22;30270;40.238;18.256;2022-07-03T13:26:30;34.40;85.70
44559;DHT22;30270;40.238;18.256;2022-07-03T13:28:58;34.50;85.00
44559;DHT22;30270;40.238;18.256;2022-07-03T13:31:26;34.50;84.20
44559;DHT22;30270;40.238;18.256;2022-07-03T13:33:54;34.60;83.90
44559;DHT22;30270;40.238;18.256;2022-07-03T13:36:22;34.50;82.90
44559;DHT22;30270;40.238;18.256;2022-07-03T13:38:50;34.60;82.80
44559;DHT22;30270;40.238;18.256;2022-07-03T13:41:17;34.60;83.40
44559;DHT22;30270;40.238;18.256;2022-07-03T13:43:46;34.60;83.70
44559;DHT22;30270;40.238;18.256;2022-07-03T13:46:14;34.50;82.80
44559;DHT22;30270;40.238;18.256;2022-07-03T13:48:42;34.60;81.90
44559;DHT22;30270;40.238;18.256;2022-07-03T13:51:09;34.50;81.70
44559;DHT22;30270;40.238;18.256;2022-07-03T13:53:37;34.50;81.10
44559;DHT22;30270;40.238;18.256;2022-07-03T13:56:04;34.40;80.30
44559;DHT22;30270;40.238;18.256;2022-07-03T13:58:32;34.40;80.40
44559;DHT22;30270;40.238;18.256;2022-07-03T14:01:00;34.50;79.80
44559;DHT22;30270;40.238;18.256;2022-07-03T14:03:28;34.50;78.20
44559;DHT22;30270;40.238;18.256;2022-07-03T14:05:56;34.40;78.60
44559;DHT22;30270;40.238;18.256;2022-07-03T14:08:24;34.50;77.50
44559;DHT22;30270;40.238;18.256;2022-07-03T14:10:51;34.60;77.60
44559;DHT22;30270;40.238;18.256;2022-07-03T14:13:19;34.50;77.30
44559;DHT22;30270;40.238;18.256;2022-07-03T14:15:46;34.50;77.30
44559;DHT22;30270;40.238;18.256;2022-07-03T14:18:14;34.40;78.20
44559;DHT22;30270;40.238;18.256;2022-07-03T14:20:42;34.40;78.30
44559;DHT22;30270;40.238;18.256;2022-07-03T14:23:09;34.40;78.40
44559;DHT22;30270;40.238;18.256;2022-07-03T14:25:37;34.30;79.00
44559;DHT22;30270;40.238;18.256;2022-07-03T14:28:04;34.30;78.70
44559;DHT22;30270;40.238;18.256;2022-07-03T14:30:50;34.10;77.90
44559;DHT22;30270;40.238;18.256;2022-07-03T14:33:36;34.00;78.50
44559;DHT22;30270;40.238;18.256;2022-07-03T14:36:03;34.00;78.90
44559;DHT22;30270;40.238;18.256;2022-07-03T14:38:31;34.10;79.00
44559;DHT22;30270;40.238;18.256;2022-07-03T14:40:59;34.10;79.30
44559;DHT22;30270;40.238;18.256;2022-07-03T14:43:26;34.10;79.00
44559;DHT22;30270;40.238;18.256;2022-07-03T14:45:54;34.10;78.60
44559;DHT22;30270;40.238;18.256;2022-07-03T14:48:22;34.00;77.80
44559;DHT22;30270;40.238;18.256;2022-07-03T14:50:50;34.10;78.00
44559;DHT22;30270;40.238;18.256;2022-07-03T14:53:18;34.10;77.80
44559;DHT22;30270;40.238;18.256;2022-07-03T14:55:46;34.00;77.80
44559;DHT22;30270;40.238;18.256;2022-07-03T14:58:14;34.10;78.60
44559;DHT22;30270;40.238;18.256;2022-07-03T15:00:47;34.10;78.50
44559;DHT22;30270;40.238;18.256;2022-07-03T15:03:16;34.20;79.50
44559;DHT22;30270;40.238;18.256;2022-07-03T15:05:45;34.10;79.50
44559;DHT22;30270;40.238;18.256;2022-07-03T15:10:46;33.90;80.00
44559;DHT22;30270;40.238;18.256;2022-07-03T15:13:14;33.90;80.80
44559;DHT22;30270;40.238;18.256;2022-07-03T15:15:42;33.80;80.70
44559;DHT22;30270;40.238;18.256;2022-07-03T15:18:12;33.80;81.10
44559;DHT22;30270;40.238;18.256;2022-07-03T15:20:40;33.80;82.30
44559;DHT22;30270;40.238;18.256;2022-07-03T15:23:08;33.80;81.90
44559;DHT22;30270;40.238;18.256;2022-07-03T15:25:36;33.80;81.90
44559;DHT22;30270;40.238;18.256;2022-07-03T15:28:04;33.90;82.70
44559;DHT22;30270;40.238;18.256;2022-07-03T15:30:36;33.90;83.20
44559;DHT22;30270;40.238;18.256;2022-07-03T15:33:03;33.90;83.60
44559;DHT22;30270;40.238;18.256;2022-07-03T15:35:31;33.90;83.60
44559;DHT22;30270;40.238;18.256;2022-07-03T15:53:42;33.60;82.80
44559;DHT22;30270;40.238;18.256;2022-07-03T15:56:13;33.60;81.90
44559;DHT22;30270;40.238;18.256;2022-07-03T15:58:45;33.50;81.30
44559;DHT22;30270;40.238;18.256;2022-07-03T16:01:14;33.50;81.70
44559;DHT22;30270;40.238;18.256;2022-07-03T16:04:02;33.40;82.10
44559;DHT22;30270;40.238;18.256;2022-07-03T16:06:33;33.50;82.30
44559;DHT22;30270;40.238;18.256;2022-07-03T16:09:01;33.50;82.70
44559;DHT22;30270;40.238;18.256;2022-07-03T16:11:29;33.50;83.60
44559;DHT22;30270;40.238;18.256;2022-07-03T16:13:57;33.50;84.30
44559;DHT22;30270;40.238;18.256;2022-07-03T16:16:29;33.60;83.40
44559;DHT22;30270;40.238;18.256;2022-07-03T16:18:58;33.50;82.60
44559;DHT22;30270;40.238;18.256;2022-07-03T16:21:28;33.60;81.70
44559;DHT22;30270;40.238;18.256;2022-07-03T16:23:57;33.60;80.20
44559;DHT22;30270;40.238;18.256;2022-07-03T16:26:26;33.50;79.60
44559;DHT22;30270;40.238;18.256;2022-07-03T16:28:53;33.40;79.80
44559;DHT22;30270;40.238;18.256;2022-07-03T16:31:24;33.30;79.80
44559;DHT22;30270;40.238;18.256;2022-07-03T16:33:56;33.40;79.40
44559;DHT22;30270;40.238;18.256;2022-07-03T16:36:26;33.40;79.70
44559;DHT22;30270;40.238;18.256;2022-07-03T16:38:57;33.30;79.70
44559;DHT22;30270;40.238;18.256;2022-07-03T16:41:26;33.30;80.00
44559;DHT22;30270;40.238;18.256;2022-07-03T16:43:56;33.30;80.80
44559;DHT22;30270;40.238;18.256;2022-07-03T16:46:24;33.30;80.90
44559;DHT22;30270;40.238;18.256;2022-07-03T16:48:55;33.30;81.40
44559;DHT22;30270;40.238;18.256;2022-07-03T16:51:23;33.20;81.70
44559;DHT22;30270;40.238;18.256;2022-07-03T16:53:54;33.10;82.20
44559;DHT22;30270;40.238;18.256;2022-07-03T16:56:23;33.10;82.80
44559;DHT22;30270;40.238;18.256;2022-07-03T16:58:52;33.10;83.50
44559;DHT22;30270;40.238;18.256;2022-07-03T17:01:21;33.10;83.30
44559;DHT22;30270;40.238;18.256;2022-07-03T17:03:49;33.10;83.60
44559;DHT22;30270;40.238;18.256;2022-07-03T17:06:17;33.10;84.50
44559;DHT22;30270;40.238;18.256;2022-07-03T17:08:46;33.20;85.40
44559;DHT22;30270;40.238;18.256;2022-07-03T17:11:14;33.10;85.40
44559;DHT22;30270;40.238;18.256;2022-07-03T17:13:42;33.10;85.10
44559;DHT22;30270;40.238;18.256;2022-07-03T17:16:09;33.00;85.50
44559;DHT22;30270;40.238;18.256;2022-07-03T17:18:43;33.00;85.70
44559;DHT22;30270;40.238;18.256;2022-07-03T17:21:15;32.90;85.50
44559;DHT22;30270;40.238;18.256;2022-07-03T17:23:44;32.90;85.70